KSHN/SHN METAR and TAF weather

Enter ICAO airport designator
Station Type Date Time Source
KSHN METAR 2020/12/05 06:21 UTC NOAA

KSHN 050621Z AUTO 02003KT 1SM BR CLR 00/M01 A3027 RMK AO2 I1000 T00001006


Station Type Date Time Source
KSHN Decoded METAR 2020/12/05 06:21 UTC NOAA

SHELTON SANDERSON FIELD, WA, United States (KSHN) 47-14N 123-08W 82M
Dec 05, 2020 - 01:21 AM EST / 2020.12.05 0621 UTC
Wind: from the NNE (020 degrees) at 3 MPH (3 KT):0
Visibility: 1 mile(s):0
Sky conditions: clear
Weather: mist
Temperature: 32.0 F (0.0 C)
Dew Point: 30.9 F (-0.6 C)
Relative Humidity: 95%
Pressure (altimeter): 30.27 in. Hg (1025 hPa)
ob: KSHN 050621Z AUTO 02003KT 1SM BR CLR 00/M01 A3027 RMK AO2 I1000 T00001006
cycle: 6

Station Type Date Time Source
KSHN TAF UTC NOAA

Error!

Example: see airport list